Time,TemperatureF,DewpointF,PressureIn,WindDirection,WindDirectionDegrees,WindSpeedMPH,WindSpeedGustMPH,Humidity,HourlyPrecipIn,Conditions,Clouds,dailyrainin,SoftwareType,DateUTC
2013-07-24 00:00:00,80.8,74.4,29.60,WSW,248,0.0,0.0,81,0.00,CLR,CLR,0.00,WeatherDisplay:10.37,2013-07-24 04:00:00,
2013-07-24 00:30:00,80.8,74.0,29.60,SSE,154,0.0,0.0,80,0.00,CLR,CLR,0.00,WeatherDisplay:10.37,2013-07-24 04:30:00,
2013-07-24 01:00:00,81.0,74.2,29.58,SSW,200,0.0,0.0,80,0.00,CLR,CLR,0.00,WeatherDisplay:10.37,2013-07-24 05:00:00,
2013-07-24 01:30:00,80.8,74.4,29.58,SSW,202,0.0,0.0,81,0.00,CLR,CLR,0.00,WeatherDisplay:10.37,2013-07-24 05:30:00,
2013-07-24 02:00:00,80.2,73.9,29.57,SSW,202,0.0,0.0,81,0.00,CLR,CLR,0.00,WeatherDisplay:10.37,2013-07-24 06:00:00,
2013-07-24 02:30:00,80.4,73.7,29.54,SSW,202,0.0,0.0,80,0.00,CLR,CLR,0.00,WeatherDisplay:10.37,2013-07-24 06:30:00,
2013-07-24 03:00:00,79.9,73.5,29.53,SSW,202,0.0,0.0,81,0.00,CLR,CLR,0.00,WeatherDisplay:10.37,2013-07-24 07:00:00,
2013-07-24 03:30:00,79.3,73.7,29.53,SSW,202,0.0,0.0,83,0.00,CLR,CLR,0.00,WeatherDisplay:10.37,2013-07-24 07:30:00,
2013-07-24 04:00:00,79.0,73.7,29.53,SSW,202,0.0,0.0,84,0.00,CLR,CLR,0.00,WeatherDisplay:10.37,2013-07-24 08:00:00,
2013-07-24 04:30:00,79.0,73.7,29.52,SSW,202,0.0,0.0,84,0.00,CLR,CLR,0.00,WeatherDisplay:10.37,2013-07-24 08:30:00,
2013-07-24 05:00:00,79.3,74.1,29.53,SSW,202,0.0,0.0,84,0.00,CLR,CLR,0.00,WeatherDisplay:10.37,2013-07-24 09:00:00,
2013-07-24 05:30:00,79.9,73.5,29.52,SW,225,0.0,0.0,81,0.00,CLR,CLR,0.00,WeatherDisplay:10.37,2013-07-24 09:30:00,
2013-07-24 06:00:00,79.7,73.3,29.53,SW,225,0.0,0.0,81,0.00,CLR,CLR,0.00,WeatherDisplay:10.37,2013-07-24 10:00:00,
2013-07-24 06:30:00,79.5,73.5,29.53,SW,225,0.0,0.0,82,0.00,CLR,CLR,0.00,WeatherDisplay:10.37,2013-07-24 10:30:00,
2013-07-24 07:00:00,79.5,73.5,29.53,SW,225,0.0,0.0,82,0.00,CLR,CLR,0.00,WeatherDisplay:10.37,2013-07-24 11:00:00,
2013-07-24 07:30:00,80.2,74.2,29.54,SSW,202,0.0,0.0,82,0.00,CLR,CLR,0.00,WeatherDisplay:10.37,2013-07-24 11:30:00,
2013-07-24 08:00:00,81.3,74.6,29.55,SSW,213,0.0,0.0,80,0.00,CLR,CLR,0.00,WeatherDisplay:10.37,2013-07-24 12:00:00,
2013-07-24 08:30:00,82.0,74.5,29.55,WSW,246,0.0,0.0,78,0.00,CLR,CLR,0.00,WeatherDisplay:10.37,2013-07-24 12:30:00,
2013-07-24 09:00:00,82.8,75.6,29.56,WSW,250,0.0,0.0,79,0.00,CLR,CLR,0.00,WeatherDisplay:10.37,2013-07-24 13:00:00,
2013-07-24 09:30:00,83.5,75.1,29.56,WSW,246,0.0,0.0,76,0.00,CLR,CLR,0.00,WeatherDisplay:10.37,2013-07-24 13:30:00,
2013-07-24 10:00:00,84.2,75.0,29.57,WSW,244,0.0,0.0,74,0.00,CLR,CLR,0.00,WeatherDisplay:10.37,2013-07-24 14:00:00,
2013-07-24 10:30:00,84.4,74.8,29.57,NW,310,0.0,0.0,73,0.00,CLR,CLR,0.00,WeatherDisplay:10.37,2013-07-24 14:30:00,
2013-07-24 11:00:00,85.5,75.0,29.58,WSW,252,0.0,0.0,71,0.00,CLR,CLR,0.00,WeatherDisplay:10.37,2013-07-24 15:00:00,
2013-07-24 11:30:00,85.5,74.6,29.58,WSW,251,0.0,0.0,70,0.00,CLR,CLR,0.00,WeatherDisplay:10.37,2013-07-24 15:30:00,
2013-07-24 12:00:00,85.5,75.8,29.58,WSW,249,0.0,0.0,73,0.00,CLR,CLR,0.00,WeatherDisplay:10.37,2013-07-24 16:00:00,
2013-07-24 12:30:00,85.6,75.2,29.58,WSW,252,0.0,0.0,71,0.00,CLR,CLR,0.00,WeatherDisplay:10.37,2013-07-24 16:30:00,
2013-07-24 13:00:00,86.4,75.8,29.56,West,280,0.0,0.0,71,0.00,CLR,CLR,0.00,WeatherDisplay:10.37,2013-07-24 17:00:00,
2013-07-24 13:30:00,86.7,74.4,29.56,WNW,282,0.0,0.0,67,0.00,CLR,CLR,0.00,WeatherDisplay:10.37,2013-07-24 17:30:00,
2013-07-24 14:00:00,87.4,75.6,29.56,WSW,247,0.0,0.0,68,0.00,CLR,CLR,0.00,WeatherDisplay:10.37,2013-07-24 18:00:00,
2013-07-24 14:30:00,86.9,75.1,29.56,West,281,0.0,0.0,68,0.00,CLR,CLR,0.00,WeatherDisplay:10.37,2013-07-24 18:30:00,
2013-07-24 15:00:00,86.7,75.3,29.55,West,269,0.0,0.0,69,0.00,CLR,CLR,0.00,WeatherDisplay:10.37,2013-07-24 19:00:00,
2013-07-24 15:30:00,86.7,74.4,29.54,West,274,0.0,0.0,67,0.00,CLR,CLR,0.00,WeatherDisplay:10.37,2013-07-24 19:30:00,
2013-07-24 16:00:00,87.6,75.7,29.53,West,278,0.0,0.0,68,0.00,CLR,CLR,0.00,WeatherDisplay:10.37,2013-07-24 20:00:00,
2013-07-24 16:30:00,86.5,74.7,29.52,WSW,239,0.0,0.0,68,0.00,CLR,CLR,0.00,WeatherDisplay:10.37,2013-07-24 20:30:00,
2013-07-24 17:00:00,87.1,75.2,29.51,NW,307,0.0,0.0,68,0.00,CLR,CLR,0.00,WeatherDisplay:10.37,2013-07-24 21:00:00,
2013-07-24 17:30:00,86.2,74.8,29.51,West,260,0.0,0.0,69,0.00,CLR,CLR,0.00,WeatherDisplay:10.37,2013-07-24 21:30:00,
2013-07-24 18:00:00,85.3,75.2,29.51,West,265,0.0,0.0,72,0.00,CLR,CLR,0.00,WeatherDisplay:10.37,2013-07-24 22:00:00,
2013-07-24 18:30:00,85.6,76.0,29.51,WSW,244,0.0,0.0,73,0.00,CLR,CLR,0.00,WeatherDisplay:10.37,2013-07-24 22:30:00,
2013-07-24 19:00:00,84.7,75.1,29.51,SW,230,0.0,0.0,73,0.00,CLR,CLR,0.00,WeatherDisplay:10.37,2013-07-24 23:00:00,
2013-07-24 19:30:00,84.0,75.2,29.51,WSW,252,0.0,0.0,75,0.00,CLR,CLR,0.00,WeatherDisplay:10.37,2013-07-24 23:30:00,
2013-07-24 20:00:00,83.3,74.9,29.52,West,260,0.0,0.0,76,0.00,CLR,CLR,0.00,WeatherDisplay:10.37,2013-07-25 00:00:00,
2013-07-24 20:30:00,82.9,75.4,29.53,WSW,247,0.0,0.0,78,0.00,CLR,CLR,0.00,WeatherDisplay:10.37,2013-07-25 00:30:00,
2013-07-24 21:00:00,82.6,74.2,29.53,WSW,257,0.0,0.0,76,0.00,CLR,CLR,0.00,WeatherDisplay:10.37,2013-07-25 01:00:00,
2013-07-24 21:30:00,82.2,74.7,29.53,West,267,0.0,0.0,78,0.00,CLR,CLR,0.00,WeatherDisplay:10.37,2013-07-25 01:30:00,
2013-07-24 22:00:00,82.0,74.5,29.53,SW,234,0.0,0.0,78,0.00,CLR,CLR,0.00,WeatherDisplay:10.37,2013-07-25 02:00:00,
2013-07-24 22:30:00,82.0,75.3,29.53,WSW,252,0.0,0.0,80,0.00,CLR,CLR,0.00,WeatherDisplay:10.37,2013-07-25 02:30:00,
2013-07-24 23:00:00,82.0,75.3,29.53,WSW,250,0.0,0.0,80,0.00,CLR,CLR,0.00,WeatherDisplay:10.37,2013-07-25 03:00:00,
2013-07-24 23:30:00,82.0,75.3,29.53,WSW,255,0.0,0.0,80,0.00,CLR,CLR,0.00,WeatherDisplay:10.37,2013-07-25 03:30:00,